Latest Weather Observations for Tasman Island

IDT60901

Issued at 3:55 pm EST Saturday 20 September 2014 (issued every 10 minutes, with the page automatically refreshed every 10 minutes)

About weather observations | Map of Hobart area stations | Latest observations for Hobart area | Other Formats
Station Details ID: 094155 Name: TASMAN ISLAND Lat: -43.24 Lon: 148.00 Height: 240.0 m
Data from the previous 72 hours. | See also: Recent months at Tasman Island
Date/Time
EST
Tmp

°C
App
Tmp
°C
Dew
Point
°C
Rel
Hum
%
Delta-T

°C
Wind Press
QNH
hPa
Press
MSL
hPa
Rain
since
9 am
mm
Dir
 
Spd
km/h
Gust
km/h
Spd
kts
Gust
kts
20/03:30pm 10.0 4.0 6.9 81 1.5 SW 28 56 15 30 1021.9 1022.2 0.0
20/03:25pm 10.5 4.5 7.0 79 1.7 SW 28 48 15 26 1022.0 1022.3 0.0
20/03:00pm 10.5 5.5 6.3 75 2.0 SW 22 48 12 26 1021.8 1022.1 0.0
20/02:34pm 10.7 4.6 6.5 75 2.0 SW 28 63 15 34 1021.7 1022.0 0.0
20/02:30pm 11.0 5.3 6.9 76 2.0 SW 26 63 14 34 1021.7 1022.0 0.0
20/02:00pm 9.9 2.9 6.8 81 1.5 SW 33 67 18 36 1021.7 1022.0 0.0
20/01:40pm 10.5 4.7 7.9 84 1.3 SW 28 59 15 32 1021.5 1021.8 0.0
20/01:30pm 10.7 6.4 7.9 83 1.4 SW 20 52 11 28 1021.7 1022.0 0.0
20/01:00pm 10.7 6.9 7.4 80 1.6 SW 17 52 9 28 1022.0 1022.3 0.0
20/12:30pm 10.5 6.0 6.8 78 1.8 WSW 20 46 11 25 1022.1 1022.4 0.0
20/12:00pm 10.9 6.1 7.2 78 1.8 WSW 22 50 12 27 1022.0 1022.3 0.0
20/11:30am 10.4 5.9 6.0 74 2.1 W 19 41 10 22 1022.2 1022.5 0.0
20/11:00am 10.5 6.0 7.0 79 1.7 WSW 20 48 11 26 1022.1 1022.4 0.0
20/10:30am 9.7 5.4 6.8 82 1.4 WSW 19 50 10 27 1021.9 1022.2 0.0
20/10:02am 9.4 3.5 7.5 88 0.9 WSW 28 56 15 30 1021.8 1022.1 0.0
20/10:00am 9.5 4.0 7.6 88 0.9 WSW 26 56 14 30 1021.9 1022.2 0.0
20/09:38am 9.1 3.1 7.2 88 0.9 WSW 28 50 15 27 1021.8 1022.1 0.0
20/09:30am 9.3 4.4 7.1 86 1.0 WSW 22 46 12 25 1021.7 1022.0 0.0
20/09:00am 9.4 3.7 6.8 84 1.2 WSW 26 54 14 29 1021.6 1021.9 6.2
20/08:35am 9.1 3.0 6.7 85 1.1 WSW 28 57 15 31 1021.6 1021.9 6.2
20/08:30am 9.1 3.8 6.7 85 1.1 WSW 24 44 13 24 1021.5 1021.8 6.2
20/08:00am 9.1 3.8 6.7 85 1.1 WSW 24 46 13 25 1021.5 1021.8 6.2
20/07:30am 8.7 3.2 7.5 92 0.6 SW 26 57 14 31 1021.1 1021.4 6.2
20/07:10am 8.8 2.9 7.3 90 0.7 SW 28 56 15 30 1020.8 1021.1 6.2
20/07:00am 8.9 3.4 7.4 90 0.7 WSW 26 57 14 31 1020.9 1021.2 6.2
20/06:30am 8.8 3.6 7.3 90 0.7 SW 24 50 13 27 1020.4 1020.7 6.2
20/06:00am 8.2 2.3 7.4 95 0.4 SW 28 63 15 34 1020.0 1020.3 6.2
20/05:30am 8.7 2.0 7.3 91 0.7 SW 32 61 17 33 1019.6 1019.9 6.2
20/05:00am 8.7 2.8 7.3 91 0.7 SW 28 52 15 28 1019.4 1019.7 6.2
20/04:30am 8.9 2.1 7.0 88 0.9 SW 32 69 17 37 1019.1 1019.3 6.2
20/04:00am 8.9 2.1 7.7 92 0.6 SW 33 63 18 34 1018.7 1019.0 6.2
20/03:30am 8.8 1.4 8.4 97 0.2 SW 37 69 20 37 1018.5 1018.8 6.2
20/03:00am 8.9 3.2 8.3 96 0.3 SW 28 65 15 35 1018.1 1018.4 6.0
20/02:30am 9.2 3.5 8.4 95 0.4 SW 28 65 15 35 1017.8 1018.1 6.0
20/02:08am 9.2 3.6 8.6 96 0.3 SW 28 56 15 30 1017.8 1018.1 6.0
20/02:00am 9.1 3.8 8.5 96 0.3 SW 26 54 14 29 1017.7 1018.0 6.0
20/01:32am 8.7 3.0 8.3 97 0.2 SW 28 61 15 33 1017.5 1017.8 6.0
20/01:30am 8.9 3.6 8.6 98 0.1 SW 26 67 14 36 1017.6 1017.9 6.0
20/01:00am 9.0 3.4 8.9 99 0.0 SW 28 59 15 32 1017.4 1017.7 6.0
20/12:30am 8.9 3.3 8.8 99 0.0 SW 28 65 15 35 1017.5 1017.8 6.0
20/12:00am 8.9 -0.5 8.6 98 0.1 SW 48 70 26 38 1017.5 1017.8 5.2
 
Date/Time
EST
Tmp

°C
App
Tmp
°C
Dew
Point
°C
Rel
Hum
%
Delta-T

°C
Wind Press
QNH
hPa
Press
MSL
hPa
Rain
since
9 am
mm
Dir
 
Spd
km/h
Gust
km/h
Spd
kts
Gust
kts
19/11:30pm 9.1 2.6 8.3 95 0.4 SW 32 54 17 29 1017.5 1017.8 4.8
19/11:00pm 9.1 2.6 8.2 94 0.4 SW 32 69 17 37 1017.4 1017.7 4.8
19/10:30pm 9.5 0.9 8.3 92 0.6 SSW 43 69 23 37 1017.3 1017.6 4.8
19/10:00pm 8.8 -0.3 8.4 97 0.2 SSW 46 82 25 44 1017.1 1017.4 4.8
19/09:30pm 8.9 1.6 8.8 99 0.0 SSW 37 74 20 40 1016.9 1017.2 4.8
19/09:23pm 8.8 1.9 8.7 99 0.0 SSW 35 59 19 32 1016.7 1017.0 4.8
19/09:15pm 8.7 -2.4 8.6 99 0.0 SW 57 80 31 43 1016.4 1016.7 4.6
19/09:00pm 9.0 2.1 8.9 99 0.0 SW 35 70 19 38 1016.4 1016.7 4.2
19/08:30pm 9.1 2.8 9.0 99 0.0 SW 32 69 17 37 1016.3 1016.6 4.0
19/08:00pm 9.1 3.6 9.0 99 0.0 SW 28 63 15 34 1016.2 1016.5 3.6
19/07:30pm 8.8 3.2 8.7 99 0.0 SW 28 56 15 30 1016.0 1016.3 3.4
19/07:00pm 8.6 2.0 8.5 99 0.0 SW 33 69 18 37 1015.6 1015.8 3.4
19/06:30pm 9.1 2.8 8.8 98 0.1 WSW 32 70 17 38 1014.7 1014.9 2.2
19/06:00pm 8.9 2.8 8.3 96 0.3 WSW 30 61 16 33 1014.7 1014.9 2.2
19/05:30pm 8.7 2.8 7.3 91 0.7 WSW 28 67 15 36 1014.6 1014.8 2.2
19/05:00pm 9.1 2.7 7.1 87 1.0 WSW 30 67 16 36 1014.3 1014.6 2.2
19/04:30pm 9.4 2.6 7.5 88 0.9 WSW 33 74 18 40 1014.0 1014.3 2.2
19/04:00pm 9.1 1.2 6.0 81 1.4 WSW 37 78 20 42 1013.2 1013.5 2.2
19/03:30pm 10.0 2.0 5.6 74 2.0 WSW 37 76 20 41 1013.3 1013.6 2.2
19/03:00pm 9.9 2.9 4.3 68 2.5 WSW 30 67 16 36 1013.1 1013.4 2.2
19/02:30pm 9.9 2.5 5.1 72 2.2 WSW 33 67 18 36 1012.7 1013.0 2.2
19/02:00pm 10.0 1.5 5.2 72 2.2 WSW 39 82 21 44 1012.8 1013.1 2.2
19/01:30pm 9.5 1.9 5.7 77 1.8 WSW 35 82 19 44 1012.7 1013.0 2.2
19/01:00pm 9.4 3.2 8.0 91 0.7 WSW 30 72 16 39 1013.0 1013.3 2.2
19/12:33pm 9.7 4.2 9.2 97 0.3 WSW 28 69 15 37 1013.2 1013.5 2.2
19/12:30pm 9.9 5.3 9.6 98 0.2 WSW 24 59 13 32 1013.2 1013.5 2.2
19/12:00pm 9.3 1.7 9.2 99 0.0 WSW 39 80 21 43 1013.0 1013.3 2.2
19/11:30am 8.8 2.8 8.8 100 0.0 WSW 30 69 16 37 1013.2 1013.5 2.2
19/11:00am 8.7 2.1 8.7 100 0.0 SW 33 67 18 36 1013.3 1013.6 2.2
19/10:30am 8.3 1.6 8.3 100 0.0 WSW 33 70 18 38 1013.2 1013.5 2.0
19/10:00am 8.5 1.9 8.5 100 0.0 SW 33 67 18 36 1013.4 1013.7 1.6
19/09:30am 8.7 1.0 8.7 100 0.0 SW 39 83 21 45 1013.5 1013.8 1.0
19/09:21am 8.3 1.6 8.3 100 0.0 SW 33 83 18 45 1013.3 1013.6 1.0
19/09:15am 8.5 2.8 8.5 100 0.0 SW 28 56 15 30 1013.3 1013.6 1.0
19/09:04am 8.1 -3.0 8.1 100 0.0 SW 56 87 30 47 1013.3 1013.6 0.6
19/09:00am 8.5 2.8 8.5 100 0.0 SW 28 72 15 39 1013.4 1013.7 16.8
19/08:30am 8.8 -0.2 8.8 100 0.0 SSW 46 76 25 41 1013.3 1013.6 15.4
19/08:00am 8.4 0.2 8.4 100 0.0 SSW 41 69 22 37 1013.2 1013.5 15.4
19/07:55am 8.4 1.8 8.4 100 0.0 SSW 33 63 18 34 1013.2 1013.5 15.4
19/07:30am 8.4 -2.6 8.4 100 0.0 SW 56 85 30 46 1012.9 1013.2 15.2
19/07:00am 8.2 -3.4 8.2 100 0.0 SW 59 91 32 49 1012.5 1012.8 14.8
19/06:49am 8.3 -3.3 8.3 100 0.0 SW 59 89 32 48 1012.3 1012.5 14.4
19/06:30am 8.0 0.9 8.0 100 0.0 SW 35 72 19 39 1012.2 1012.4 14.4
19/06:18am 7.9 0.8 7.9 100 0.0 SW 35 59 19 32 1012.2 1012.4 14.0
19/06:04am 8.1 -3.5 8.1 100 0.0 SW 59 82 32 44 1011.9 1012.1 13.6
19/06:00am 8.1 1.4 8.1 100 0.0 SW 33 76 18 41 1011.7 1011.9 13.6
19/05:30am 8.0 0.1 7.9 99 0.0 SW 39 78 21 42 1011.3 1011.5 13.6
19/05:00am 8.1 -1.9 8.0 99 0.0 SW 50 91 27 49 1011.1 1011.3 12.8
19/04:30am 8.4 -2.3 8.1 98 0.1 SW 54 91 29 49 1010.7 1010.9 10.6
19/04:00am 8.5 -0.1 8.2 98 0.1 SW 43 89 23 48 1010.8 1011.0 9.4
19/03:39am 8.4 -1.9 8.1 98 0.1 SW 52 89 28 48 1010.6 1010.8 8.8
19/03:30am 8.0 -0.9 7.7 98 0.1 SW 44 69 24 37 1010.5 1010.7 8.6
19/03:29am 8.0 -0.7 7.7 98 0.1 SW 43 63 23 34 1010.5 1010.7 8.6
19/03:20am 7.8 -5.2 7.2 96 0.3 SW 65 87 35 47 1010.3 1010.5 8.6
19/03:00am 8.4 0.2 8.1 98 0.1 SW 41 82 22 44 1010.1 1010.3 8.2
19/02:30am 8.0 -0.3 7.7 98 0.1 WSW 41 91 22 49 1009.7 1010.0 7.6
19/02:13am 8.3 1.2 7.9 97 0.2 WSW 35 80 19 43 1009.9 1010.2 6.2
19/02:06am 8.5 2.4 8.1 97 0.2 WSW 30 59 16 32 1010.1 1010.3 6.0
19/02:04am 8.5 5.5 7.9 96 0.3 WNW 13 37 7 20 1010.1 1010.3 6.0
19/02:00am 8.6 0.7 8.0 96 0.3 W 39 74 21 40 1010.1 1010.3 5.6
19/01:46am 8.3 1.4 7.2 93 0.5 WSW 33 87 18 47 1009.8 1010.1 5.4
19/01:39am 8.5 2.6 7.7 95 0.4 WSW 28 67 15 36 1010.4 1010.6 5.2
19/01:30am 8.2 3.0 7.3 94 0.4 WSW 24 63 13 34 1010.9 1011.1 5.2
19/01:00am 8.8 2.9 7.4 91 0.7 W 28 72 15 39 1010.6 1010.8 5.2
19/12:55am 8.6 2.6 7.2 91 0.7 WSW 28 72 15 39 1010.6 1010.8 5.2
19/12:30am 7.7 4.3 6.0 89 0.8 NW 13 39 7 21 1011.2 1011.4 5.2
19/12:00am 7.6 3.1 5.9 89 0.8 N 19 46 10 25 1011.3 1011.5 5.2
 
Date/Time
EST
Tmp

°C
App
Tmp
°C
Dew
Point
°C
Rel
Hum
%
Delta-T

°C
Wind Press
QNH
hPa
Press
MSL
hPa
Rain
since
9 am
mm
Dir
 
Spd
km/h
Gust
km/h
Spd
kts
Gust
kts
18/11:30pm 7.9 5.2 5.4 84 1.1 N 9 32 5 17 1011.8 1012.0 4.4
18/11:00pm 8.3 4.3 4.7 78 1.6 W 15 48 8 26 1012.1 1012.3 4.4
18/10:30pm 8.3 4.7 4.9 79 1.5 NNW 13 41 7 22 1012.2 1012.4 4.4
18/10:00pm 8.2 4.9 4.8 79 1.5 NW 11 35 6 19 1012.9 1013.2 4.4
18/09:30pm 8.0 4.2 5.8 86 1.0 WSW 15 43 8 23 1012.9 1013.2 4.4
18/09:00pm 8.5 4.7 5.6 82 1.3 SSW 15 37 8 20 1013.1 1013.4 4.4
18/08:35pm 8.6 2.1 4.8 77 1.7 WSW 28 57 15 31 1013.3 1013.6 4.4
18/08:30pm 8.5 2.4 4.7 77 1.7 SW 26 52 14 28 1013.3 1013.6 4.4
18/08:00pm 8.2 1.8 5.0 80 1.4 WSW 28 61 15 33 1013.5 1013.8 4.4
18/07:54pm 8.2 1.8 5.0 80 1.4 WSW 28 63 15 34 1013.3 1013.6 4.4
18/07:30pm 8.4 3.6 4.6 77 1.7 WSW 19 50 10 27 1013.5 1013.8 4.4
18/07:29pm 8.5 4.4 4.5 76 1.8 W 15 50 8 27 1013.5 1013.8 4.4
18/07:00pm 8.4 -1.7 3.7 72 2.1 SW 46 80 25 43 1013.1 1013.4 4.4
18/06:36pm 8.3 -1.5 3.4 71 2.1 SSW 44 87 24 47 1012.9 1013.2 4.4
18/06:30pm 8.3 -0.2 3.0 69 2.3 SW 37 57 20 31 1013.1 1013.4 4.4
18/06:00pm 8.0 -5.1 2.7 69 2.3 SW 61 82 33 44 1012.8 1013.1 4.4
18/05:30pm 8.1 -3.3 2.6 68 2.3 SW 52 87 28 47 1012.5 1012.8 4.4
18/05:00pm 8.3 -2.7 2.8 68 2.4 SSW 50 91 27 49 1012.0 1012.2 4.4
18/04:30pm 8.3 -3.7 3.6 72 2.1 SW 56 82 30 44 1011.7 1011.9 4.4
18/04:21pm 8.4 -4.2 3.5 71 2.1 SW 59 82 32 44 1011.7 1011.9 4.4
18/04:00pm 8.1 -0.2 2.4 67 2.4 SW 35 80 19 43 1011.3 1011.5 4.4
18/03:30pm 7.9 0.7 6.0 88 0.9 SW 33 67 18 36 1011.5 1011.7 4.4
18/03:24pm 7.8 1.6 6.3 90 0.7 SW 28 67 15 36 1011.5 1011.7 4.4
18/03:00pm 7.3 2.9 6.6 95 0.3 SSW 19 41 10 22 1011.3 1011.5 4.4
18/02:30pm 6.4 3.5 6.3 99 0.0 NW 11 33 6 18 1011.9 1012.1 4.4
18/02:00pm 5.4 1.9 5.3 99 0.0 NW 13 37 7 20 1012.0 1012.2 4.4
18/01:32pm 5.3 -1.1 5.2 99 0.0 WSW 28 59 15 32 1012.1 1012.3 4.0
18/01:30pm 5.2 -0.8 5.1 99 0.0 WSW 26 59 14 32 1012.1 1012.3 3.8
18/01:14pm 4.8 -4.2 4.5 98 0.1 WSW 41 70 22 38 1012.2 1012.4 3.0
18/01:00pm 5.8 -2.5 4.1 89 0.7 SSW 37 83 20 45 1012.2 1012.4 1.2
18/12:59pm 5.9 -2.6 3.4 84 1.1 SSW 37 72 20 39 1012.2 1012.4 1.2
18/12:55pm 6.5 -0.7 2.9 78 1.5 SSW 30 48 16 26 1012.4 1012.7 1.0
18/12:30pm 8.0 2.3 2.9 70 2.2 WSW 22 43 12 23 1012.1 1012.3 0.8
18/12:00pm 8.3 3.2 3.0 69 2.3 WSW 19 46 10 25 1012.7 1013.0 0.8
18/11:39am 7.6 1.6 3.5 75 1.8 WSW 24 50 13 27 1012.8 1013.1 0.8
18/11:30am 7.4 -1.9 2.7 72 2.0 SSW 41 74 22 40 1012.8 1013.1 0.8
18/11:24am 7.6 0.0 2.7 71 2.1 SW 32 74 17 40 1012.9 1013.2 0.8
18/11:05am 7.9 1.2 3.9 76 1.8 WSW 28 50 15 27 1013.1 1013.4 0.8
18/11:00am 7.8 1.5 3.8 76 1.7 WSW 26 44 14 24 1013.3 1013.6 0.8
18/10:43am 7.2 0.6 4.2 81 1.3 SW 28 63 15 34 1013.2 1013.5 0.8
18/10:30am 7.2 2.0 5.5 89 0.8 SW 22 48 12 26 1013.6 1013.9 0.8
18/10:00am 6.9 1.2 3.0 76 1.7 SW 22 61 12 33 1013.0 1013.3 0.2
18/09:40am 6.7 -0.3 2.0 72 1.9 WSW 28 50 15 27 1013.6 1013.9 0.0
18/09:36am 6.8 -1.3 1.3 68 2.2 WSW 33 50 18 27 1013.5 1013.8 0.0
18/09:30am 8.3 -0.4 1.9 64 2.7 SW 37 59 20 32 1013.5 1013.8 0.0
18/09:00am 8.0 -2.4 -0.5 55 3.4 SW 44 67 24 36 1013.2 1013.5 9.6
18/08:30am 7.5 -1.0 0.7 62 2.7 SSW 35 59 19 32 1013.2 1013.5 9.6
18/08:00am 7.5 -1.5 0.0 59 3.0 SSW 37 61 20 33 1013.1 1013.4 9.6
18/07:30am 7.6 -1.6 1.5 65 2.5 SSW 39 63 21 34 1012.7 1013.0 9.6
18/07:04am 7.0 -2.5 1.7 69 2.2 SSW 41 61 22 33 1012.2 1012.4 9.6
18/07:00am 7.1 -1.8 1.0 65 2.5 SSW 37 54 20 29 1012.2 1012.4 9.6
18/06:30am 6.9 -2.0 0.6 64 2.5 SSW 37 65 20 35 1012.0 1012.2 9.6
18/06:00am 7.1 -1.9 2.2 71 2.0 SSW 39 59 21 32 1011.5 1011.7 9.6
18/05:30am 7.1 -2.7 2.2 71 2.0 SSW 43 65 23 35 1010.9 1011.1 9.6
18/05:00am 6.9 -2.4 3.2 77 1.6 SSW 41 67 22 36 1010.5 1010.7 9.6
18/04:30am 6.8 -2.4 3.4 79 1.5 SSW 41 69 22 37 1010.1 1010.3 9.6
18/04:00am 7.1 -3.0 3.5 78 1.6 SSW 46 80 25 43 1009.4 1009.7 9.6
18/03:30am 7.7 -4.5 2.8 71 2.1 SW 56 74 30 40 1009.0 1009.3 9.6
18/03:00am 7.3 -2.9 1.0 64 2.6 SSW 44 76 24 41 1009.0 1009.3 9.6
18/02:40am 7.5 -1.1 2.6 71 2.1 SSW 37 67 20 36 1008.8 1009.1 9.6
18/02:30am 7.6 -4.9 2.1 68 2.3 SW 57 82 31 44 1008.5 1008.7 9.6
18/02:15am 7.5 -4.2 3.4 75 1.8 SW 54 85 29 46 1008.4 1008.6 9.6
18/02:00am 7.5 -1.5 4.3 80 1.4 SSW 41 63 22 34 1008.3 1008.5 9.6
18/01:30am 6.7 -3.5 5.2 90 0.7 SSW 48 80 26 43 1008.1 1008.3 9.4
18/01:23am 6.7 -5.6 5.0 89 0.8 SSW 59 80 32 43 1007.9 1008.1 9.4
18/01:00am 7.4 -1.5 5.2 86 1.0 SSW 41 67 22 36 1007.6 1007.8 9.2
18/12:30am 7.3 -1.5 5.6 89 0.8 SSW 41 70 22 38 1007.2 1007.4 9.2
18/12:00am 7.7 -0.8 5.3 85 1.1 SSW 39 65 21 35 1006.7 1006.9 9.0
 
Date/Time
EST
Tmp

°C
App
Tmp
°C
Dew
Point
°C
Rel
Hum
%
Delta-T

°C
Wind Press
QNH
hPa
Press
MSL
hPa
Rain
since
9 am
mm
Dir
 
Spd
km/h
Gust
km/h
Spd
kts
Gust
kts
17/11:32pm 7.2 0.1 5.5 89 0.8 SSW 32 52 17 28 1006.5 1006.7 9.0
17/11:30pm 7.1 0.0 5.3 88 0.8 SSW 32 46 17 25 1006.5 1006.7 9.0
17/11:00pm 7.3 0.3 6.1 92 0.6 SSW 32 57 17 31 1005.9 1006.1 9.0
17/10:55pm 7.3 0.8 6.4 94 0.4 SW 30 57 16 31 1005.8 1006.0 9.0
17/10:30pm 6.7 0.8 5.7 93 0.5 WSW 26 59 14 32 1005.6 1005.9 9.0
17/10:17pm 6.2 -0.2 5.0 92 0.5 WSW 28 48 15 26 1005.4 1005.7 9.0
17/10:00pm 6.3 1.0 5.1 92 0.5 SW 22 50 12 27 1005.0 1005.2 9.0
17/09:30pm 6.1 -1.2 4.7 91 0.6 WSW 32 65 17 35 1004.7 1004.9 9.0
17/09:00pm 6.9 -0.5 3.9 81 1.3 WSW 32 72 17 39 1004.4 1004.6 8.8
17/08:30pm 7.2 -0.4 3.1 75 1.7 SW 32 67 17 36 1004.2 1004.4 8.8
17/08:00pm 7.2 -1.8 2.7 73 1.9 SW 39 82 21 44 1004.0 1004.2 8.8
17/07:56pm 7.3 -1.3 2.8 73 1.9 SW 37 82 20 44 1003.8 1004.0 8.8
17/07:55pm 7.3 -0.3 2.8 73 1.9 SW 32 54 17 29 1003.9 1004.1 8.8
17/07:44pm 7.3 -4.9 2.6 72 2.0 SW 56 80 30 43 1003.6 1003.8 8.8
17/07:30pm 7.4 -1.0 1.3 65 2.5 SW 35 76 19 41 1003.4 1003.6 8.8
17/07:00pm 7.4 -0.6 1.7 67 2.4 SW 33 67 18 36 1003.0 1003.2 8.8
17/06:30pm 7.1 -1.3 1.8 69 2.2 WSW 35 80 19 43 1002.6 1002.8 8.8
17/06:00pm 6.2 -1.7 2.5 77 1.6 SW 33 83 18 45 1002.8 1003.0 8.8
17/05:56pm 6.8 -1.3 3.1 77 1.6 SW 35 83 19 45 1002.5 1002.7 8.6
17/05:54pm 7.0 -0.7 3.3 77 1.6 SW 33 59 18 32 1002.6 1002.8 8.6
17/05:48pm 6.8 -6.8 2.1 72 2.0 SW 63 93 34 50 1002.4 1002.6 8.6
17/05:46pm 7.3 -2.0 3.0 74 1.8 SW 41 82 22 44 1002.5 1002.7 8.6
17/05:41pm 7.3 -1.6 2.8 73 1.9 SW 39 61 21 33 1002.6 1002.8 8.6
17/05:30pm 7.2 -5.4 3.4 77 1.6 SW 59 89 32 48 1002.5 1002.7 8.6
17/05:00pm 6.4 -6.6 3.4 81 1.3 SW 61 83 33 45 1001.9 1002.1 8.4
17/04:59pm 6.4 -7.0 3.4 81 1.3 SW 63 83 34 45 1001.9 1002.1 8.4
17/04:33pm 7.5 -2.2 2.8 72 2.0 SW 43 76 23 41 1001.2 1001.4 8.2
17/04:30pm 7.6 -1.0 2.7 71 2.1 SSW 37 56 20 30 1001.5 1001.6 8.2
17/04:00pm 7.4 -4.9 3.3 75 1.8 SW 57 89 31 48 1000.7 1000.9 8.2

Latest Capital City Observations: Canberra | Sydney | Melbourne | Brisbane | Adelaide | Perth | Hobart | Darwin

Other Formats:

Comma delimited format used in spreadsheet applications
http://www.bom.gov.au/fwo/IDT60901/IDT60901.95986.axf

JavaScript Object Notation format (JSON) in row-major order
http://www.bom.gov.au/fwo/IDT60901/IDT60901.95986.json